Higginsville, Missouri
Current Conditions -  °F | °C
As of 8:55 AM on Saturday 20 Dec 2014 (Local Time) from KRCM Reporting Station
Haze Haze  
Wind Chill: 28°   Ceiling: 1500
Heat Index: 34°   Visibility: 5mi
Dew Point: 32°   Wind: 7mph
Humidity: 93%   Direction: 200°SSW
Pressure: 30.22"   Gusts: NA
Location:  39.07°N, 93.72°W
Report Text: KRCM 201455Z AUTO 20006KT 5SM BR SCT010 OVC015 01/00 A3022 RMK AO2
Loading
Personal Weather Stations






























Interactive Weather Map New forecast layout! Learn more

10-Day Weather Forecast

Advertisements
Track Severe Weather on mobile